Nathrop, CO (81236)

2:44 PM MST on February 06, 2016 (GMT -0700)
Mesa Antero | | Change Station
CLOSE
Current Station
Personal Weather Station
Location: Nathrop, CO
Elevation: 8202 ft
Nearby Weather Stations

Elev 8202 ft 38.68 °N, 106.10 °W | Updated 4 minutes ago

Clear
Clear
41.5 °F
Feels Like 42 °F
N
0.0
Wind Variable Wind from SE
Gusts 5.0 mph

Today
High -- | Low -- °F
--% Chance of Precip.
Yesterday
High -- | Low -- °F
Precip. -- in
Pressure 30.26 in
Visibility 10.0 miles
Clouds Clear
Windchill 42 °F
Dew Point 17 °F
Humidity 37%
Rainfall 0.04 in
Snow Depth Not available.
7:06 AM 5:31 PM
Waning Crescent, 4% visible
METAR KAEJ 062135Z AUTO 33010G16KT 10SM CLR 05/M10 A3026 RMK AO2 T00501099
Pressure 30.26 in
Visibility 10.0 miles
Clouds Clear
Windchill 42 °F
Dew Point 17 °F
Humidity 37%
Rainfall 0.04 in
Snow Depth Not available.
7:06 AM 5:31 PM
Waning Crescent, 4% visible
METAR KAEJ 062135Z AUTO 33010G16KT 10SM CLR 05/M10 A3026 RMK AO2 T00501099

10-Day Weather Forecast

Almanac

Astronomy

Feb. 06, 2016 Rise Set
Actual Time
Civil Twilight
Nautical Twilight
Astronomical Twilight
Moon
Length of Visible Light
Length of Day
Tomorrow will be .
, % of the Moon is Illuminated

Today's Extremes

State Highs State Lows

Community

WunderPhotos

Upload Photos

1,891,051 photos uploaded!

WunderBlog® & News

Nearby

Air Quality

  Air Quality AQ Index Pollutant
Not available.

Snow Depth

Station Depth Elevation

Earthquake Activity

City Distance Mag. Time & Date
Minimum magnitude displayed is 2.5.

Coastal Water Temperatures

Place Temperature

Stations

Nearby Weather Stations

Station Location Temp. Windchill Dew Point Humidity Wind Precip. Elev Updated Type
                   

Watches & Warnings

There are currently no watches in effect.